createdAt,value
2019-01-03T00:09:06.720Z,25.23
2019-01-03T00:19:49.469Z,19.17
2019-01-03T00:30:25.820Z,16.83
2019-01-03T00:40:48.978Z,15.67
2019-01-03T00:51:08.925Z,13.67
2019-01-03T01:01:36.014Z,12.97
2019-01-03T01:12:00.219Z,12.80
2019-01-03T01:22:24.538Z,11.90
2019-01-03T01:32:51.916Z,10.77
2019-01-03T01:43:31.740Z,10.80
2019-01-03T01:53:54.834Z,10.40
2019-01-03T02:04:18.149Z,10.63
2019-01-03T02:14:51.434Z,9.50
2019-01-03T02:25:13.547Z,8.73
2019-01-03T02:35:38.971Z,8.60
2019-01-03T02:45:56.954Z,8.33
2019-01-03T02:56:31.409Z,8.03
2019-01-03T03:06:54.403Z,7.80
2019-01-03T03:17:27.741Z,7.27
2019-01-03T03:27:50.085Z,7.63
2019-01-03T03:38:16.616Z,6.77
2019-01-03T03:48:44.081Z,7.53
2019-01-03T03:59:07.280Z,6.97
2019-01-03T04:09:34.829Z,6.20
2019-01-03T04:20:08.737Z,6.13
2019-01-03T04:30:42.360Z,6.50
2019-01-03T04:40:59.717Z,6.10
2019-01-03T04:51:22.973Z,5.93
2019-01-03T05:02:16.157Z,5.67
2019-01-03T05:12:38.949Z,5.10
2019-01-03T05:23:04.719Z,5.73
2019-01-03T05:33:27.974Z,5.33
2019-01-03T05:43:52.317Z,4.70
2019-01-03T05:54:14.384Z,5.27
2019-01-03T06:04:38.722Z,5.07
2019-01-03T06:15:08.052Z,5.33
2019-01-03T06:25:31.303Z,4.90
2019-01-03T06:35:58.892Z,4.47
2019-01-03T06:46:22.212Z,4.60
2019-01-03T06:56:45.456Z,4.60
2019-01-03T07:07:22.822Z,4.33
2019-01-03T07:18:02.365Z,4.17
2019-01-03T07:28:25.244Z,4.30
2019-01-03T07:38:52.551Z,3.77
2019-01-03T07:49:20.501Z,3.47
2019-01-03T07:59:58.455Z,3.97
2019-01-03T08:10:21.870Z,3.50
2019-01-03T08:20:45.102Z,3.77
2019-01-03T08:31:10.180Z,3.30
2019-01-03T08:41:35.770Z,3.40
2019-01-03T08:51:56.810Z,3.20
2019-01-03T09:02:33.426Z,2.70
2019-01-03T09:13:06.623Z,2.90
2019-01-03T09:23:29.559Z,3.53
2019-01-03T09:34:05.808Z,4.00
2019-01-03T09:44:29.285Z,4.03
2019-01-03T09:54:34.789Z,3.70
2019-01-03T10:04:40.169Z,2.23
2019-01-03T10:14:45.481Z,2.50
2019-01-03T10:24:53.195Z,2.13
2019-01-03T10:34:58.586Z,2.37
2019-01-03T10:45:04.015Z,2.20
2019-01-03T10:55:09.410Z,2.03
2019-01-03T11:05:14.841Z,2.40
2019-01-03T11:15:22.245Z,2.87
2019-01-03T11:25:27.438Z,2.80
2019-01-03T11:35:34.385Z,2.80
2019-01-03T11:45:39.773Z,3.17
2019-01-03T11:55:45.124Z,2.77
2019-01-03T12:05:50.656Z,4.03
2019-01-03T12:15:56.666Z,4.07
2019-01-03T12:26:02.191Z,3.67
2019-01-03T12:36:09.863Z,3.70
2019-01-03T12:46:15.405Z,3.53
2019-01-03T12:56:20.797Z,3.57
2019-01-03T13:06:26.178Z,4.10
2019-01-03T13:16:33.142Z,3.53
2019-01-03T13:26:38.985Z,3.50
2019-01-03T13:36:44.513Z,3.80
2019-01-03T13:46:49.991Z,3.43
2019-01-03T13:56:55.886Z,3.33
2019-01-03T14:07:01.389Z,3.00
2019-01-03T14:17:06.877Z,3.23
2019-01-03T14:27:12.304Z,2.70
2019-01-03T14:37:18.739Z,3.23
2019-01-03T14:47:24.333Z,2.87
2019-01-03T14:57:29.836Z,2.40
2019-01-03T15:07:36.484Z,2.60
2019-01-03T15:17:44.178Z,2.77
2019-01-03T15:27:50.080Z,2.43
2019-01-03T15:37:57.482Z,2.40
2019-01-03T15:48:03.122Z,2.50
2019-01-03T15:58:08.639Z,3.00
2019-01-03T16:08:14.046Z,3.23
2019-01-03T16:18:19.619Z,2.50
2019-01-03T16:28:25.044Z,2.03
2019-01-03T16:38:30.474Z,2.20
2019-01-03T16:48:37.583Z,2.30
2019-01-03T16:58:43.384Z,2.40
2019-01-03T17:08:51.124Z,3.10
2019-01-03T17:18:56.547Z,3.80
2019-01-03T17:29:01.968Z,4.00
2019-01-03T17:39:08.243Z,3.90
2019-01-03T17:49:14.997Z,3.73
2019-01-03T17:59:21.073Z,3.50
2019-01-03T18:09:28.204Z,3.33
2019-01-03T18:19:34.053Z,3.67
2019-01-03T18:29:43.546Z,3.90
2019-01-03T18:39:49.595Z,5.20
2019-01-03T18:49:55.512Z,83.63
2019-01-03T19:00:02.463Z,85.73
2019-01-03T19:10:11.580Z,92.57
2019-01-03T19:20:18.876Z,95.00
2019-01-03T19:30:24.720Z,184.50
2019-01-03T19:40:30.267Z,149.23
2019-01-03T19:50:37.003Z,119.53
2019-01-03T20:00:42.681Z,96.50
2019-01-03T20:10:48.741Z,87.73
2019-01-03T20:20:56.270Z,81.63
2019-01-03T20:31:02.135Z,77.07
2019-01-03T20:41:11.115Z,71.33
2019-01-03T20:51:17.355Z,156.17
2019-01-03T21:01:23.481Z,182.90
2019-01-03T21:11:29.604Z,161.53
2019-01-03T21:21:37.647Z,183.83
2019-01-03T21:31:43.560Z,655.67
2019-01-03T21:41:49.883Z,617.03
2019-01-03T21:51:58.158Z,577.80
2019-01-03T22:02:03.688Z,556.77
2019-01-03T22:12:09.191Z,521.27
2019-01-03T22:22:15.204Z,411.63
2019-01-03T22:32:21.007Z,299.43
2019-01-03T22:42:26.617Z,284.30
2019-01-03T22:52:33.456Z,367.77
2019-01-03T23:02:39.104Z,300.23
2019-01-03T23:12:44.854Z,283.37
2019-01-03T23:22:50.850Z,411.07
2019-01-03T23:32:56.960Z,388.50
2019-01-03T23:43:03.674Z,358.83
2019-01-03T23:53:11.040Z,347.80
